sensor_id;sensor_type;location;lat;lon;timestamp;P1;durP1;ratioP1;P2;durP2;ratioP2
73850;SDS011;62190;51.548;5.688;2023-07-16T00:02:23;9.95;;;3.90;;
73850;SDS011;62190;51.548;5.688;2023-07-16T00:04:50;12.23;;;3.87;;
73850;SDS011;62190;51.548;5.688;2023-07-16T00:07:18;12.23;;;3.90;;
73850;SDS011;62190;51.548;5.688;2023-07-16T00:09:46;8.80;;;3.80;;
73850;SDS011;62190;51.548;5.688;2023-07-16T00:12:16;9.18;;;4.65;;
73850;SDS011;62190;51.548;5.688;2023-07-16T00:14:43;12.88;;;4.55;;
73850;SDS011;62190;51.548;5.688;2023-07-16T00:17:11;13.15;;;4.92;;
73850;SDS011;62190;51.548;5.688;2023-07-16T00:19:38;10.72;;;5.00;;
73850;SDS011;62190;51.548;5.688;2023-07-16T00:22:05;11.55;;;4.83;;
73850;SDS011;62190;51.548;5.688;2023-07-16T00:24:33;9.60;;;5.50;;
73850;SDS011;62190;51.548;5.688;2023-07-16T00:27:00;14.28;;;6.58;;
73850;SDS011;62190;51.548;5.688;2023-07-16T00:29:29;15.98;;;6.65;;
73850;SDS011;62190;51.548;5.688;2023-07-16T00:31:56;12.07;;;6.75;;
73850;SDS011;62190;51.548;5.688;2023-07-16T00:34:24;17.52;;;8.00;;
73850;SDS011;62190;51.548;5.688;2023-07-16T00:36:51;20.08;;;8.48;;
73850;SDS011;62190;51.548;5.688;2023-07-16T00:39:18;18.70;;;8.45;;
73850;SDS011;62190;51.548;5.688;2023-07-16T00:41:47;15.38;;;8.10;;
73850;SDS011;62190;51.548;5.688;2023-07-16T00:44:15;15.35;;;9.13;;
73850;SDS011;62190;51.548;5.688;2023-07-16T00:46:44;18.00;;;8.00;;
73850;SDS011;62190;51.548;5.688;2023-07-16T00:49:11;14.78;;;8.83;;
73850;SDS011;62190;51.548;5.688;2023-07-16T00:51:38;19.52;;;9.35;;
73850;SDS011;62190;51.548;5.688;2023-07-16T00:54:06;21.57;;;10.05;;
73850;SDS011;62190;51.548;5.688;2023-07-16T00:56:34;18.82;;;9.53;;
73850;SDS011;62190;51.548;5.688;2023-07-16T00:59:02;17.98;;;9.13;;
73850;SDS011;62190;51.548;5.688;2023-07-16T01:01:29;17.98;;;9.08;;
73850;SDS011;62190;51.548;5.688;2023-07-16T01:03:58;21.30;;;10.20;;
73850;SDS011;62190;51.548;5.688;2023-07-16T01:06:30;19.00;;;9.75;;
73850;SDS011;62190;51.548;5.688;2023-07-16T01:09:06;18.65;;;9.78;;
73850;SDS011;62190;51.548;5.688;2023-07-16T01:11:36;22.45;;;10.25;;
73850;SDS011;62190;51.548;5.688;2023-07-16T01:14:04;19.52;;;9.73;;
73850;SDS011;62190;51.548;5.688;2023-07-16T01:16:33;21.42;;;9.78;;
73850;SDS011;62190;51.548;5.688;2023-07-16T01:19:02;18.55;;;9.75;;
73850;SDS011;62190;51.548;5.688;2023-07-16T01:21:34;19.42;;;10.20;;
73850;SDS011;62190;51.548;5.688;2023-07-16T01:29:45;16.77;;;8.40;;
73850;SDS011;62190;51.548;5.688;2023-07-16T01:32:23;16.80;;;8.53;;
73850;SDS011;62190;51.548;5.688;2023-07-16T01:34:51;17.95;;;8.68;;
73850;SDS011;62190;51.548;5.688;2023-07-16T01:37:21;16.87;;;7.62;;
73850;SDS011;62190;51.548;5.688;2023-07-16T01:39:51;14.90;;;6.95;;
73850;SDS011;62190;51.548;5.688;2023-07-16T01:42:21;15.25;;;7.10;;
73850;SDS011;62190;51.548;5.688;2023-07-16T01:44:47;17.48;;;7.72;;
73850;SDS011;62190;51.548;5.688;2023-07-16T01:47:20;13.62;;;7.58;;
73850;SDS011;62190;51.548;5.688;2023-07-16T01:49:48;16.30;;;7.90;;
73850;SDS011;62190;51.548;5.688;2023-07-16T01:52:16;13.38;;;7.17;;
73850;SDS011;62190;51.548;5.688;2023-07-16T01:54:47;16.65;;;7.37;;
73850;SDS011;62190;51.548;5.688;2023-07-16T01:57:14;17.77;;;8.25;;
73850;SDS011;62190;51.548;5.688;2023-07-16T01:59:41;15.72;;;7.45;;
73850;SDS011;62190;51.548;5.688;2023-07-16T02:02:09;19.23;;;7.70;;
73850;SDS011;62190;51.548;5.688;2023-07-16T02:04:36;18.45;;;8.00;;
73850;SDS011;62190;51.548;5.688;2023-07-16T02:07:03;16.10;;;7.50;;
73850;SDS011;62190;51.548;5.688;2023-07-16T02:09:33;14.40;;;7.22;;
73850;SDS011;62190;51.548;5.688;2023-07-16T02:12:00;13.90;;;6.47;;
73850;SDS011;62190;51.548;5.688;2023-07-16T02:14:28;16.23;;;7.10;;
73850;SDS011;62190;51.548;5.688;2023-07-16T02:16:55;16.48;;;7.15;;
73850;SDS011;62190;51.548;5.688;2023-07-16T02:19:23;17.87;;;7.12;;
73850;SDS011;62190;51.548;5.688;2023-07-16T02:21:51;16.42;;;6.60;;
73850;SDS011;62190;51.548;5.688;2023-07-16T02:24:20;14.90;;;6.55;;
73850;SDS011;62190;51.548;5.688;2023-07-16T02:26:49;18.42;;;6.58;;
73850;SDS011;62190;51.548;5.688;2023-07-16T02:29:17;19.80;;;7.08;;
73850;SDS011;62190;51.548;5.688;2023-07-16T02:31:46;20.68;;;8.23;;
73850;SDS011;62190;51.548;5.688;2023-07-16T02:34:14;16.93;;;7.28;;
73850;SDS011;62190;51.548;5.688;2023-07-16T02:36:41;17.82;;;8.10;;
73850;SDS011;62190;51.548;5.688;2023-07-16T02:39:08;13.75;;;6.92;;
73850;SDS011;62190;51.548;5.688;2023-07-16T02:41:36;15.15;;;6.97;;
73850;SDS011;62190;51.548;5.688;2023-07-16T02:44:04;12.90;;;6.80;;
73850;SDS011;62190;51.548;5.688;2023-07-16T02:46:32;16.12;;;7.78;;
73850;SDS011;62190;51.548;5.688;2023-07-16T02:48:59;12.63;;;6.75;;
73850;SDS011;62190;51.548;5.688;2023-07-16T02:51:28;15.30;;;7.03;;
73850;SDS011;62190;51.548;5.688;2023-07-16T02:53:58;16.17;;;6.97;;
73850;SDS011;62190;51.548;5.688;2023-07-16T02:56:24;10.32;;;6.08;;
73850;SDS011;62190;51.548;5.688;2023-07-16T02:58:52;15.18;;;7.28;;
73850;SDS011;62190;51.548;5.688;2023-07-16T03:01:20;13.85;;;6.33;;
73850;SDS011;62190;51.548;5.688;2023-07-16T03:03:48;20.10;;;7.45;;
73850;SDS011;62190;51.548;5.688;2023-07-16T03:06:16;10.32;;;6.83;;
73850;SDS011;62190;51.548;5.688;2023-07-16T03:08:43;13.83;;;5.62;;
73850;SDS011;62190;51.548;5.688;2023-07-16T03:11:11;12.45;;;5.92;;
73850;SDS011;62190;51.548;5.688;2023-07-16T03:13:38;12.90;;;5.60;;
73850;SDS011;62190;51.548;5.688;2023-07-16T03:16:06;20.35;;;6.83;;
73850;SDS011;62190;51.548;5.688;2023-07-16T03:18:33;13.08;;;6.70;;
73850;SDS011;62190;51.548;5.688;2023-07-16T03:21:01;10.50;;;5.15;;
73850;SDS011;62190;51.548;5.688;2023-07-16T03:23:29;13.68;;;5.03;;
73850;SDS011;62190;51.548;5.688;2023-07-16T03:25:57;14.95;;;5.33;;
73850;SDS011;62190;51.548;5.688;2023-07-16T03:28:24;13.80;;;5.55;;
73850;SDS011;62190;51.548;5.688;2023-07-16T03:30:51;10.93;;;5.28;;
73850;SDS011;62190;51.548;5.688;2023-07-16T03:33:19;23.02;;;5.90;;
73850;SDS011;62190;51.548;5.688;2023-07-16T03:35:48;13.28;;;5.55;;
73850;SDS011;62190;51.548;5.688;2023-07-16T03:38:15;12.80;;;4.37;;
73850;SDS011;62190;51.548;5.688;2023-07-16T03:40:47;14.18;;;5.00;;
73850;SDS011;62190;51.548;5.688;2023-07-16T03:43:16;14.63;;;5.12;;
73850;SDS011;62190;51.548;5.688;2023-07-16T03:45:44;10.38;;;4.65;;
73850;SDS011;62190;51.548;5.688;2023-07-16T03:48:11;9.98;;;4.50;;
73850;SDS011;62190;51.548;5.688;2023-07-16T03:50:39;11.65;;;4.55;;
73850;SDS011;62190;51.548;5.688;2023-07-16T03:53:06;12.88;;;4.58;;
73850;SDS011;62190;51.548;5.688;2023-07-16T03:55:33;13.35;;;4.75;;
73850;SDS011;62190;51.548;5.688;2023-07-16T03:58:01;11.38;;;4.35;;
73850;SDS011;62190;51.548;5.688;2023-07-16T04:00:29;13.70;;;4.40;;
73850;SDS011;62190;51.548;5.688;2023-07-16T04:02:57;12.40;;;4.55;;
73850;SDS011;62190;51.548;5.688;2023-07-16T04:05:24;14.38;;;4.87;;
73850;SDS011;62190;51.548;5.688;2023-07-16T04:07:52;11.68;;;5.00;;
73850;SDS011;62190;51.548;5.688;2023-07-16T04:10:19;17.40;;;4.75;;
73850;SDS011;62190;51.548;5.688;2023-07-16T04:12:46;15.48;;;4.65;;
73850;SDS011;62190;51.548;5.688;2023-07-16T04:15:14;11.97;;;4.75;;
73850;SDS011;62190;51.548;5.688;2023-07-16T04:17:41;12.30;;;4.30;;
73850;SDS011;62190;51.548;5.688;2023-07-16T04:20:08;12.13;;;4.83;;
73850;SDS011;62190;51.548;5.688;2023-07-16T04:22:36;11.68;;;4.37;;
73850;SDS011;62190;51.548;5.688;2023-07-16T04:25:03;11.88;;;4.47;;
73850;SDS011;62190;51.548;5.688;2023-07-16T04:27:31;13.75;;;5.03;;
73850;SDS011;62190;51.548;5.688;2023-07-16T04:29:58;9.78;;;4.22;;
73850;SDS011;62190;51.548;5.688;2023-07-16T04:32:26;9.95;;;3.87;;
73850;SDS011;62190;51.548;5.688;2023-07-16T04:34:53;11.97;;;3.98;;
73850;SDS011;62190;51.548;5.688;2023-07-16T04:37:21;15.08;;;4.75;;
73850;SDS011;62190;51.548;5.688;2023-07-16T04:39:49;10.72;;;4.10;;
73850;SDS011;62190;51.548;5.688;2023-07-16T04:42:16;14.15;;;4.25;;
73850;SDS011;62190;51.548;5.688;2023-07-16T04:44:43;10.25;;;3.90;;
73850;SDS011;62190;51.548;5.688;2023-07-16T04:47:11;17.17;;;4.67;;
73850;SDS011;62190;51.548;5.688;2023-07-16T04:49:38;11.78;;;4.53;;
73850;SDS011;62190;51.548;5.688;2023-07-16T04:52:06;9.30;;;4.20;;
73850;SDS011;62190;51.548;5.688;2023-07-16T04:54:36;11.20;;;4.22;;
73850;SDS011;62190;51.548;5.688;2023-07-16T04:57:05;8.75;;;4.47;;
73850;SDS011;62190;51.548;5.688;2023-07-16T04:59:33;10.32;;;4.45;;
73850;SDS011;62190;51.548;5.688;2023-07-16T05:02:06;9.50;;;4.35;;
73850;SDS011;62190;51.548;5.688;2023-07-16T05:04:30;12.75;;;4.12;;
73850;SDS011;62190;51.548;5.688;2023-07-16T05:06:58;8.75;;;3.75;;
73850;SDS011;62190;51.548;5.688;2023-07-16T05:09:27;11.00;;;4.30;;
73850;SDS011;62190;51.548;5.688;2023-07-16T05:11:56;13.08;;;4.62;;
73850;SDS011;62190;51.548;5.688;2023-07-16T05:14:26;10.50;;;3.87;;
73850;SDS011;62190;51.548;5.688;2023-07-16T05:16:54;7.60;;;3.72;;
73850;SDS011;62190;51.548;5.688;2023-07-16T05:19:22;10.30;;;4.70;;
73850;SDS011;62190;51.548;5.688;2023-07-16T05:21:49;8.68;;;3.87;;
73850;SDS011;62190;51.548;5.688;2023-07-16T05:24:17;11.93;;;3.80;;
73850;SDS011;62190;51.548;5.688;2023-07-16T05:26:45;10.65;;;4.20;;
73850;SDS011;62190;51.548;5.688;2023-07-16T05:29:13;9.33;;;4.00;;
73850;SDS011;62190;51.548;5.688;2023-07-16T05:31:41;7.95;;;3.77;;
73850;SDS011;62190;51.548;5.688;2023-07-16T05:34:11;12.30;;;5.03;;
73850;SDS011;62190;51.548;5.688;2023-07-16T05:36:38;12.68;;;3.62;;
73850;SDS011;62190;51.548;5.688;2023-07-16T05:39:10;10.58;;;4.72;;
73850;SDS011;62190;51.548;5.688;2023-07-16T05:41:40;8.33;;;3.98;;
73850;SDS011;62190;51.548;5.688;2023-07-16T05:44:07;10.30;;;4.17;;
73850;SDS011;62190;51.548;5.688;2023-07-16T05:46:36;10.68;;;4.62;;
73850;SDS011;62190;51.548;5.688;2023-07-16T05:49:03;10.60;;;4.70;;
73850;SDS011;62190;51.548;5.688;2023-07-16T05:51:31;8.50;;;4.05;;
73850;SDS011;62190;51.548;5.688;2023-07-16T05:54:02;11.08;;;4.47;;
73850;SDS011;62190;51.548;5.688;2023-07-16T05:56:30;11.60;;;4.28;;
73850;SDS011;62190;51.548;5.688;2023-07-16T05:58:59;13.45;;;5.15;;
73850;SDS011;62190;51.548;5.688;2023-07-16T06:01:27;9.15;;;4.00;;
73850;SDS011;62190;51.548;5.688;2023-07-16T06:03:54;10.13;;;5.50;;
73850;SDS011;62190;51.548;5.688;2023-07-16T06:06:21;9.50;;;4.20;;
73850;SDS011;62190;51.548;5.688;2023-07-16T06:08:49;9.98;;;4.10;;
73850;SDS011;62190;51.548;5.688;2023-07-16T06:11:16;11.35;;;4.42;;
73850;SDS011;62190;51.548;5.688;2023-07-16T06:13:44;8.55;;;4.60;;
73850;SDS011;62190;51.548;5.688;2023-07-16T06:16:13;7.35;;;4.35;;
73850;SDS011;62190;51.548;5.688;2023-07-16T06:18:40;7.45;;;3.65;;
73850;SDS011;62190;51.548;5.688;2023-07-16T06:21:07;11.10;;;4.03;;
73850;SDS011;62190;51.548;5.688;2023-07-16T06:23:35;9.73;;;3.83;;
73850;SDS011;62190;51.548;5.688;2023-07-16T06:26:03;9.93;;;4.17;;
73850;SDS011;62190;51.548;5.688;2023-07-16T06:28:31;9.63;;;3.83;;
73850;SDS011;62190;51.548;5.688;2023-07-16T06:30:59;6.67;;;3.70;;
73850;SDS011;62190;51.548;5.688;2023-07-16T06:33:26;10.18;;;3.77;;
73850;SDS011;62190;51.548;5.688;2023-07-16T06:35:54;10.68;;;4.25;;
73850;SDS011;62190;51.548;5.688;2023-07-16T06:38:21;8.23;;;4.50;;
73850;SDS011;62190;51.548;5.688;2023-07-16T06:40:49;12.65;;;4.33;;
73850;SDS011;62190;51.548;5.688;2023-07-16T06:43:18;8.00;;;3.92;;
73850;SDS011;62190;51.548;5.688;2023-07-16T06:45:45;7.35;;;3.98;;
73850;SDS011;62190;51.548;5.688;2023-07-16T06:48:14;10.72;;;4.72;;
73850;SDS011;62190;51.548;5.688;2023-07-16T06:50:41;11.88;;;4.00;;
73850;SDS011;62190;51.548;5.688;2023-07-16T06:53:09;10.88;;;4.35;;
73850;SDS011;62190;51.548;5.688;2023-07-16T06:55:36;10.10;;;4.17;;
73850;SDS011;62190;51.548;5.688;2023-07-16T06:58:04;8.80;;;4.33;;
73850;SDS011;62190;51.548;5.688;2023-07-16T07:00:31;10.30;;;4.72;;
73850;SDS011;62190;51.548;5.688;2023-07-16T07:02:58;10.38;;;4.67;;
73850;SDS011;62190;51.548;5.688;2023-07-16T07:05:26;6.78;;;4.10;;
73850;SDS011;62190;51.548;5.688;2023-07-16T07:07:53;12.70;;;4.50;;
73850;SDS011;62190;51.548;5.688;2023-07-16T07:10:20;11.97;;;4.65;;
73850;SDS011;62190;51.548;5.688;2023-07-16T07:12:48;9.53;;;4.33;;
73850;SDS011;62190;51.548;5.688;2023-07-16T07:15:15;8.18;;;4.78;;
73850;SDS011;62190;51.548;5.688;2023-07-16T07:17:42;8.10;;;4.53;;
73850;SDS011;62190;51.548;5.688;2023-07-16T07:20:12;10.80;;;4.65;;
73850;SDS011;62190;51.548;5.688;2023-07-16T07:22:40;10.28;;;4.22;;
73850;SDS011;62190;51.548;5.688;2023-07-16T07:25:07;8.15;;;4.47;;
73850;SDS011;62190;51.548;5.688;2023-07-16T07:27:34;9.93;;;4.75;;
73850;SDS011;62190;51.548;5.688;2023-07-16T07:30:02;11.28;;;4.80;;
73850;SDS011;62190;51.548;5.688;2023-07-16T07:32:29;6.65;;;4.20;;
73850;SDS011;62190;51.548;5.688;2023-07-16T07:34:56;11.05;;;4.90;;
73850;SDS011;62190;51.548;5.688;2023-07-16T07:37:24;8.68;;;4.58;;
73850;SDS011;62190;51.548;5.688;2023-07-16T07:39:52;8.85;;;4.47;;
73850;SDS011;62190;51.548;5.688;2023-07-16T07:42:19;6.60;;;4.35;;
73850;SDS011;62190;51.548;5.688;2023-07-16T07:44:47;8.20;;;3.87;;
73850;SDS011;62190;51.548;5.688;2023-07-16T07:47:14;10.28;;;4.87;;
73850;SDS011;62190;51.548;5.688;2023-07-16T07:49:41;8.75;;;3.95;;
73850;SDS011;62190;51.548;5.688;2023-07-16T07:52:09;6.65;;;3.83;;
73850;SDS011;62190;51.548;5.688;2023-07-16T07:54:36;7.72;;;4.50;;
73850;SDS011;62190;51.548;5.688;2023-07-16T07:57:03;8.20;;;4.62;;
73850;SDS011;62190;51.548;5.688;2023-07-16T07:59:31;7.08;;;4.22;;
73850;SDS011;62190;51.548;5.688;2023-07-16T08:01:58;9.08;;;3.92;;
73850;SDS011;62190;51.548;5.688;2023-07-16T08:04:27;7.60;;;4.12;;
73850;SDS011;62190;51.548;5.688;2023-07-16T08:06:56;10.18;;;4.53;;
73850;SDS011;62190;51.548;5.688;2023-07-16T08:09:25;11.65;;;4.55;;
73850;SDS011;62190;51.548;5.688;2023-07-16T08:11:53;9.55;;;4.10;;
73850;SDS011;62190;51.548;5.688;2023-07-16T08:14:20;7.83;;;4.72;;
73850;SDS011;62190;51.548;5.688;2023-07-16T08:16:47;10.85;;;4.78;;
73850;SDS011;62190;51.548;5.688;2023-07-16T08:19:16;10.82;;;4.75;;
73850;SDS011;62190;51.548;5.688;2023-07-16T08:21:44;9.55;;;4.47;;
73850;SDS011;62190;51.548;5.688;2023-07-16T08:24:11;7.17;;;4.25;;
73850;SDS011;62190;51.548;5.688;2023-07-16T08:26:38;6.90;;;4.28;;
73850;SDS011;62190;51.548;5.688;2023-07-16T08:29:06;10.18;;;4.45;;
73850;SDS011;62190;51.548;5.688;2023-07-16T08:31:33;8.93;;;4.17;;
73850;SDS011;62190;51.548;5.688;2023-07-16T08:34:01;11.18;;;4.30;;
73850;SDS011;62190;51.548;5.688;2023-07-16T08:36:30;8.13;;;4.00;;
73850;SDS011;62190;51.548;5.688;2023-07-16T08:38:59;8.78;;;3.50;;
73850;SDS011;62190;51.548;5.688;2023-07-16T08:41:26;8.45;;;4.25;;
73850;SDS011;62190;51.548;5.688;2023-07-16T08:43:54;8.10;;;4.12;;
73850;SDS011;62190;51.548;5.688;2023-07-16T08:46:21;7.47;;;3.80;;
73850;SDS011;62190;51.548;5.688;2023-07-16T08:48:49;7.92;;;4.03;;
73850;SDS011;62190;51.548;5.688;2023-07-16T08:51:17;7.17;;;3.98;;
73850;SDS011;62190;51.548;5.688;2023-07-16T08:53:47;6.30;;;3.00;;
73850;SDS011;62190;51.548;5.688;2023-07-16T08:56:14;8.05;;;4.10;;
73850;SDS011;62190;51.548;5.688;2023-07-16T08:58:42;8.63;;;3.27;;
73850;SDS011;62190;51.548;5.688;2023-07-16T09:01:10;8.35;;;4.03;;
73850;SDS011;62190;51.548;5.688;2023-07-16T09:03:38;5.85;;;2.95;;
73850;SDS011;62190;51.548;5.688;2023-07-16T09:06:07;6.50;;;3.62;;
73850;SDS011;62190;51.548;5.688;2023-07-16T09:08:34;7.92;;;3.90;;
73850;SDS011;62190;51.548;5.688;2023-07-16T09:11:02;4.50;;;3.08;;
73850;SDS011;62190;51.548;5.688;2023-07-16T09:13:29;8.35;;;4.28;;
73850;SDS011;62190;51.548;5.688;2023-07-16T09:15:57;7.10;;;4.10;;
73850;SDS011;62190;51.548;5.688;2023-07-16T09:18:26;8.75;;;3.85;;
73850;SDS011;62190;51.548;5.688;2023-07-16T09:20:58;9.23;;;4.28;;
73850;SDS011;62190;51.548;5.688;2023-07-16T09:23:26;10.20;;;3.87;;
73850;SDS011;62190;51.548;5.688;2023-07-16T09:25:54;6.70;;;3.30;;
73850;SDS011;62190;51.548;5.688;2023-07-16T09:28:21;7.33;;;3.15;;
73850;SDS011;62190;51.548;5.688;2023-07-16T09:30:50;8.28;;;3.98;;
73850;SDS011;62190;51.548;5.688;2023-07-16T09:35:49;9.85;;;3.52;;
73850;SDS011;62190;51.548;5.688;2023-07-16T09:38:17;7.60;;;2.95;;
73850;SDS011;62190;51.548;5.688;2023-07-16T09:40:45;7.17;;;3.75;;
73850;SDS011;62190;51.548;5.688;2023-07-16T09:43:12;5.20;;;3.00;;
73850;SDS011;62190;51.548;5.688;2023-07-16T09:45:41;6.70;;;3.17;;
73850;SDS011;62190;51.548;5.688;2023-07-16T09:48:09;7.35;;;3.22;;
73850;SDS011;62190;51.548;5.688;2023-07-16T09:50:36;9.40;;;3.35;;
73850;SDS011;62190;51.548;5.688;2023-07-16T09:53:06;6.45;;;3.08;;
73850;SDS011;62190;51.548;5.688;2023-07-16T09:55:34;6.42;;;3.17;;
73850;SDS011;62190;51.548;5.688;2023-07-16T09:58:03;5.00;;;2.90;;
73850;SDS011;62190;51.548;5.688;2023-07-16T10:00:33;7.28;;;3.95;;
73850;SDS011;62190;51.548;5.688;2023-07-16T10:03:01;8.18;;;3.52;;
73850;SDS011;62190;51.548;5.688;2023-07-16T10:05:30;6.92;;;3.30;;
73850;SDS011;62190;51.548;5.688;2023-07-16T10:08:01;7.08;;;3.10;;
73850;SDS011;62190;51.548;5.688;2023-07-16T10:10:47;8.98;;;3.50;;
73850;SDS011;62190;51.548;5.688;2023-07-16T10:13:17;6.20;;;3.33;;
73850;SDS011;62190;51.548;5.688;2023-07-16T10:15:54;8.43;;;3.20;;
73850;SDS011;62190;51.548;5.688;2023-07-16T10:18:38;7.65;;;3.27;;
73850;SDS011;62190;51.548;5.688;2023-07-16T10:21:06;4.42;;;2.62;;
73850;SDS011;62190;51.548;5.688;2023-07-16T10:23:38;5.67;;;3.22;;
73850;SDS011;62190;51.548;5.688;2023-07-16T10:26:11;6.10;;;2.77;;
73850;SDS011;62190;51.548;5.688;2023-07-16T10:28:40;5.25;;;3.02;;
73850;SDS011;62190;51.548;5.688;2023-07-16T10:31:16;6.70;;;3.35;;
73850;SDS011;62190;51.548;5.688;2023-07-16T10:33:37;4.25;;;2.60;;
73850;SDS011;62190;51.548;5.688;2023-07-16T10:36:05;6.30;;;2.62;;
73850;SDS011;62190;51.548;5.688;2023-07-16T10:38:39;7.20;;;2.92;;
73850;SDS011;62190;51.548;5.688;2023-07-16T10:41:09;5.00;;;2.80;;
73850;SDS011;62190;51.548;5.688;2023-07-16T10:43:36;7.62;;;2.92;;
73850;SDS011;62190;51.548;5.688;2023-07-16T10:46:03;13.30;;;3.25;;
73850;SDS011;62190;51.548;5.688;2023-07-16T10:48:31;6.87;;;2.80;;
73850;SDS011;62190;51.548;5.688;2023-07-16T10:50:58;6.42;;;2.95;;
73850;SDS011;62190;51.548;5.688;2023-07-16T10:53:25;10.65;;;3.05;;
73850;SDS011;62190;51.548;5.688;2023-07-16T10:55:53;6.95;;;3.02;;
73850;SDS011;62190;51.548;5.688;2023-07-16T10:58:20;6.92;;;3.15;;
73850;SDS011;62190;51.548;5.688;2023-07-16T11:00:48;5.10;;;2.80;;
73850;SDS011;62190;51.548;5.688;2023-07-16T11:03:15;7.75;;;3.40;;
73850;SDS011;62190;51.548;5.688;2023-07-16T11:05:50;7.12;;;3.08;;
73850;SDS011;62190;51.548;5.688;2023-07-16T11:08:22;7.95;;;3.27;;
73850;SDS011;62190;51.548;5.688;2023-07-16T11:10:57;6.22;;;2.75;;
73850;SDS011;62190;51.548;5.688;2023-07-16T11:13:30;5.70;;;2.83;;
73850;SDS011;62190;51.548;5.688;2023-07-16T11:16:09;8.20;;;3.60;;
73850;SDS011;62190;51.548;5.688;2023-07-16T11:18:37;6.08;;;3.62;;
73850;SDS011;62190;51.548;5.688;2023-07-16T11:21:04;7.47;;;3.00;;
73850;SDS011;62190;51.548;5.688;2023-07-16T11:23:33;6.28;;;3.42;;
73850;SDS011;62190;51.548;5.688;2023-07-16T11:26:02;8.73;;;3.45;;
73850;SDS011;62190;51.548;5.688;2023-07-16T11:28:38;4.83;;;2.92;;
73850;SDS011;62190;51.548;5.688;2023-07-16T11:31:13;7.97;;;3.55;;
73850;SDS011;62190;51.548;5.688;2023-07-16T11:33:44;6.92;;;2.77;;
73850;SDS011;62190;51.548;5.688;2023-07-16T11:36:13;9.83;;;3.62;;
73850;SDS011;62190;51.548;5.688;2023-07-16T11:38:42;8.00;;;3.37;;
73850;SDS011;62190;51.548;5.688;2023-07-16T11:41:09;8.45;;;3.12;;
73850;SDS011;62190;51.548;5.688;2023-07-16T11:43:37;6.85;;;3.37;;
73850;SDS011;62190;51.548;5.688;2023-07-16T11:46:14;8.70;;;4.03;;
73850;SDS011;62190;51.548;5.688;2023-07-16T11:48:38;5.17;;;2.95;;
73850;SDS011;62190;51.548;5.688;2023-07-16T11:51:05;7.85;;;3.47;;
73850;SDS011;62190;51.548;5.688;2023-07-16T11:53:34;5.47;;;3.40;;
73850;SDS011;62190;51.548;5.688;2023-07-16T11:56:01;7.30;;;3.30;;
73850;SDS011;62190;51.548;5.688;2023-07-16T11:58:29;5.60;;;3.47;;
73850;SDS011;62190;51.548;5.688;2023-07-16T12:00:56;6.15;;;3.35;;
73850;SDS011;62190;51.548;5.688;2023-07-16T12:03:25;6.78;;;3.47;;
73850;SDS011;62190;51.548;5.688;2023-07-16T12:05:52;5.87;;;3.10;;
73850;SDS011;62190;51.548;5.688;2023-07-16T12:08:23;4.70;;;2.72;;
73850;SDS011;62190;51.548;5.688;2023-07-16T12:10:52;6.05;;;3.08;;
73850;SDS011;62190;51.548;5.688;2023-07-16T12:13:19;6.47;;;3.58;;
73850;SDS011;62190;51.548;5.688;2023-07-16T12:15:46;6.25;;;3.00;;
73850;SDS011;62190;51.548;5.688;2023-07-16T12:18:14;6.28;;;3.37;;
73850;SDS011;62190;51.548;5.688;2023-07-16T12:20:42;6.47;;;3.42;;
73850;SDS011;62190;51.548;5.688;2023-07-16T12:23:11;6.15;;;3.00;;
73850;SDS011;62190;51.548;5.688;2023-07-16T12:25:39;6.97;;;3.45;;
73850;SDS011;62190;51.548;5.688;2023-07-16T12:28:06;5.05;;;3.22;;
73850;SDS011;62190;51.548;5.688;2023-07-16T12:30:35;5.05;;;2.87;;
73850;SDS011;62190;51.548;5.688;2023-07-16T12:33:02;6.12;;;3.00;;
73850;SDS011;62190;51.548;5.688;2023-07-16T12:35:30;8.43;;;3.08;;
73850;SDS011;62190;51.548;5.688;2023-07-16T12:37:57;5.28;;;3.08;;
73850;SDS011;62190;51.548;5.688;2023-07-16T12:40:26;7.80;;;3.08;;
73850;SDS011;62190;51.548;5.688;2023-07-16T12:42:55;7.83;;;2.80;;
73850;SDS011;62190;51.548;5.688;2023-07-16T12:45:25;7.30;;;3.12;;
73850;SDS011;62190;51.548;5.688;2023-07-16T12:47:55;5.42;;;2.62;;
73850;SDS011;62190;51.548;5.688;2023-07-16T12:50:22;6.17;;;2.67;;
73850;SDS011;62190;51.548;5.688;2023-07-16T12:52:52;5.37;;;3.17;;
73850;SDS011;62190;51.548;5.688;2023-07-16T12:55:20;7.87;;;3.35;;
73850;SDS011;62190;51.548;5.688;2023-07-16T12:57:48;6.17;;;2.98;;
73850;SDS011;62190;51.548;5.688;2023-07-16T13:00:16;6.37;;;3.17;;
73850;SDS011;62190;51.548;5.688;2023-07-16T13:02:43;11.38;;;3.50;;
73850;SDS011;62190;51.548;5.688;2023-07-16T13:05:11;6.67;;;3.60;;
73850;SDS011;62190;51.548;5.688;2023-07-16T13:07:38;7.17;;;3.87;;
73850;SDS011;62190;51.548;5.688;2023-07-16T13:10:07;9.10;;;3.60;;
73850;SDS011;62190;51.548;5.688;2023-07-16T13:12:35;6.47;;;3.20;;
73850;SDS011;62190;51.548;5.688;2023-07-16T13:15:02;7.50;;;3.67;;
73850;SDS011;62190;51.548;5.688;2023-07-16T13:17:30;7.58;;;3.27;;
73850;SDS011;62190;51.548;5.688;2023-07-16T13:19:57;6.55;;;3.22;;
73850;SDS011;62190;51.548;5.688;2023-07-16T13:22:25;4.83;;;3.15;;
73850;SDS011;62190;51.548;5.688;2023-07-16T13:24:54;6.95;;;3.02;;
73850;SDS011;62190;51.548;5.688;2023-07-16T13:27:21;7.30;;;2.95;;
73850;SDS011;62190;51.548;5.688;2023-07-16T13:29:49;7.03;;;2.75;;
73850;SDS011;62190;51.548;5.688;2023-07-16T13:32:17;5.47;;;2.40;;
73850;SDS011;62190;51.548;5.688;2023-07-16T13:34:44;4.20;;;2.45;;
73850;SDS011;62190;51.548;5.688;2023-07-16T13:37:11;6.95;;;2.92;;
73850;SDS011;62190;51.548;5.688;2023-07-16T13:39:39;5.67;;;2.72;;
73850;SDS011;62190;51.548;5.688;2023-07-16T13:42:07;8.78;;;3.08;;
73850;SDS011;62190;51.548;5.688;2023-07-16T13:44:36;6.17;;;2.67;;
73850;SDS011;62190;51.548;5.688;2023-07-16T13:47:03;6.47;;;2.62;;
73850;SDS011;62190;51.548;5.688;2023-07-16T13:49:30;6.28;;;2.60;;
73850;SDS011;62190;51.548;5.688;2023-07-16T13:51:58;7.10;;;3.00;;
73850;SDS011;62190;51.548;5.688;2023-07-16T13:54:26;5.83;;;3.02;;
73850;SDS011;62190;51.548;5.688;2023-07-16T13:56:54;6.22;;;2.52;;
73850;SDS011;62190;51.548;5.688;2023-07-16T13:59:21;4.83;;;1.90;;
73850;SDS011;62190;51.548;5.688;2023-07-16T14:01:58;4.58;;;2.55;;
73850;SDS011;62190;51.548;5.688;2023-07-16T14:04:19;5.33;;;2.05;;
73850;SDS011;62190;51.548;5.688;2023-07-16T14:06:47;5.28;;;2.45;;
73850;SDS011;62190;51.548;5.688;2023-07-16T14:09:14;5.60;;;2.67;;
73850;SDS011;62190;51.548;5.688;2023-07-16T14:11:41;9.75;;;2.85;;
73850;SDS011;62190;51.548;5.688;2023-07-16T14:14:09;5.90;;;2.67;;
73850;SDS011;62190;51.548;5.688;2023-07-16T14:16:37;6.45;;;2.58;;
73850;SDS011;62190;51.548;5.688;2023-07-16T14:19:04;8.73;;;3.02;;
73850;SDS011;62190;51.548;5.688;2023-07-16T14:21:31;5.33;;;2.75;;
73850;SDS011;62190;51.548;5.688;2023-07-16T14:23:59;5.72;;;2.30;;
73850;SDS011;62190;51.548;5.688;2023-07-16T14:26:26;6.45;;;2.52;;
73850;SDS011;62190;51.548;5.688;2023-07-16T14:28:53;3.52;;;2.37;;
73850;SDS011;62190;51.548;5.688;2023-07-16T14:31:20;6.42;;;3.10;;
73850;SDS011;62190;51.548;5.688;2023-07-16T14:33:48;5.22;;;2.25;;
73850;SDS011;62190;51.548;5.688;2023-07-16T14:36:15;4.47;;;2.10;;
73850;SDS011;62190;51.548;5.688;2023-07-16T14:38:43;4.45;;;2.70;;
73850;SDS011;62190;51.548;5.688;2023-07-16T14:41:10;7.22;;;2.60;;
73850;SDS011;62190;51.548;5.688;2023-07-16T14:43:37;6.50;;;2.35;;
73850;SDS011;62190;51.548;5.688;2023-07-16T14:46:05;7.72;;;2.30;;
73850;SDS011;62190;51.548;5.688;2023-07-16T14:48:33;6.60;;;2.33;;
73850;SDS011;62190;51.548;5.688;2023-07-16T14:51:01;6.80;;;2.58;;
73850;SDS011;62190;51.548;5.688;2023-07-16T14:53:29;6.72;;;2.50;;
73850;SDS011;62190;51.548;5.688;2023-07-16T14:55:56;4.97;;;2.20;;